sensor_id;sensor_type;location;lat;lon;timestamp;pressure;altitude;pressure_sealevel;temperature;humidity
68230;BME280;55048;52.220;5.160;2023-08-21T00:01:59;102144.03;;;19.32;78.62
68230;BME280;55048;52.220;5.160;2023-08-21T00:04:24;102230.63;;;19.83;78.86
68230;BME280;55048;52.220;5.160;2023-08-21T00:06:50;102174.56;;;19.48;79.56
68230;BME280;55048;52.220;5.160;2023-08-21T00:09:15;102241.72;;;19.86;80.05
68230;BME280;55048;52.220;5.160;2023-08-21T00:11:41;102249.53;;;19.88;80.24
68230;BME280;55048;52.220;5.160;2023-08-21T00:14:06;102226.25;;;19.77;79.93
68230;BME280;55048;52.220;5.160;2023-08-21T00:16:32;102253.06;;;19.99;80.02
68230;BME280;55048;52.220;5.160;2023-08-21T00:18:57;102111.31;;;19.13;80.21
68230;BME280;55048;52.220;5.160;2023-08-21T00:21:23;102188.69;;;19.60;80.23
68230;BME280;55048;52.220;5.160;2023-08-21T00:23:48;102156.75;;;19.42;80.58
68230;BME280;55048;52.220;5.160;2023-08-21T00:26:14;102216.00;;;19.74;80.59
68230;BME280;55048;52.220;5.160;2023-08-21T00:28:39;102171.59;;;19.44;81.03
68230;BME280;55048;52.220;5.160;2023-08-21T00:31:05;102182.16;;;19.51;80.79
68230;BME280;55048;52.220;5.160;2023-08-21T00:33:31;102248.75;;;19.98;81.13
68230;BME280;55048;52.220;5.160;2023-08-21T00:35:57;102247.66;;;19.88;81.09
68230;BME280;55048;52.220;5.160;2023-08-21T00:38:23;102204.41;;;19.78;80.94
68230;BME280;55048;52.220;5.160;2023-08-21T00:40:49;102195.72;;;19.66;81.40
68230;BME280;55048;52.220;5.160;2023-08-21T00:43:14;102135.91;;;19.27;81.43
68230;BME280;55048;52.220;5.160;2023-08-21T00:45:43;102128.31;;;19.19;81.40
68230;BME280;55048;52.220;5.160;2023-08-21T00:48:09;102237.09;;;19.82;81.59
68230;BME280;55048;52.220;5.160;2023-08-21T00:50:35;102217.88;;;19.68;81.38
68230;BME280;55048;52.220;5.160;2023-08-21T00:53:01;102108.81;;;19.01;81.50
68230;BME280;55048;52.220;5.160;2023-08-21T00:55:29;102071.78;;;18.81;81.35
68230;BME280;55048;52.220;5.160;2023-08-21T00:57:55;102182.13;;;19.41;81.79
68230;BME280;55048;52.220;5.160;2023-08-21T01:00:21;102099.63;;;18.97;81.97
68230;BME280;55048;52.220;5.160;2023-08-21T01:02:47;102153.19;;;19.26;81.60
68230;BME280;55048;52.220;5.160;2023-08-21T01:05:13;102177.81;;;19.45;81.62
68230;BME280;55048;52.220;5.160;2023-08-21T01:07:48;102217.53;;;19.59;82.16
68230;BME280;55048;52.220;5.160;2023-08-21T01:10:34;102114.44;;;18.95;81.84
68230;BME280;55048;52.220;5.160;2023-08-21T01:13:09;102244.88;;;19.68;81.95
68230;BME280;55048;52.220;5.160;2023-08-21T01:15:38;102244.31;;;19.66;82.37
68230;BME280;55048;52.220;5.160;2023-08-21T01:18:04;102227.75;;;19.52;82.03
68230;BME280;55048;52.220;5.160;2023-08-21T01:20:30;102128.94;;;18.83;82.21
68230;BME280;55048;52.220;5.160;2023-08-21T01:22:55;102100.22;;;18.62;82.30
68230;BME280;55048;52.220;5.160;2023-08-21T01:25:21;102231.50;;;19.46;82.54
68230;BME280;55048;52.220;5.160;2023-08-21T01:27:49;102234.47;;;19.45;82.54
68230;BME280;55048;52.220;5.160;2023-08-21T01:30:16;102170.03;;;19.01;82.95
68230;BME280;55048;52.220;5.160;2023-08-21T01:32:59;102249.00;;;19.38;83.17
68230;BME280;55048;52.220;5.160;2023-08-21T01:35:26;102115.81;;;18.60;82.71
68230;BME280;55048;52.220;5.160;2023-08-21T01:37:52;102186.75;;;19.03;82.79
68230;BME280;55048;52.220;5.160;2023-08-21T01:40:23;102119.03;;;18.57;83.31
68230;BME280;55048;52.220;5.160;2023-08-21T01:42:48;102251.72;;;19.44;83.74
68230;BME280;55048;52.220;5.160;2023-08-21T01:45:14;102010.22;;;17.83;82.56
68230;BME280;55048;52.220;5.160;2023-08-21T01:47:39;101999.91;;;17.75;83.13
68230;BME280;55048;52.220;5.160;2023-08-21T01:50:07;102035.84;;;17.91;83.43
68230;BME280;55048;52.220;5.160;2023-08-21T01:52:32;102016.38;;;17.79;83.36
68230;BME280;55048;52.220;5.160;2023-08-21T01:54:59;102007.59;;;17.67;83.76
68230;BME280;55048;52.220;5.160;2023-08-21T01:57:24;102234.75;;;19.06;83.88
68230;BME280;55048;52.220;5.160;2023-08-21T01:59:50;102185.81;;;18.82;83.98
68230;BME280;55048;52.220;5.160;2023-08-21T02:02:16;102134.22;;;18.36;83.90
68230;BME280;55048;52.220;5.160;2023-08-21T02:04:41;102209.28;;;18.86;84.00
68230;BME280;55048;52.220;5.160;2023-08-21T02:07:07;102129.94;;;18.40;84.27
68230;BME280;55048;52.220;5.160;2023-08-21T02:09:35;102187.03;;;18.69;83.93
68230;BME280;55048;52.220;5.160;2023-08-21T02:12:00;102112.28;;;18.22;84.03
68230;BME280;55048;52.220;5.160;2023-08-21T02:14:26;102048.34;;;17.75;84.10
68230;BME280;55048;52.220;5.160;2023-08-21T02:16:51;102104.69;;;18.14;84.44
68230;BME280;55048;52.220;5.160;2023-08-21T02:19:17;102257.38;;;19.00;84.07
68230;BME280;55048;52.220;5.160;2023-08-21T02:21:43;102037.50;;;17.70;84.17
68230;BME280;55048;52.220;5.160;2023-08-21T02:24:08;102220.34;;;18.85;84.39
68230;BME280;55048;52.220;5.160;2023-08-21T02:26:34;102044.50;;;17.71;84.70
68230;BME280;55048;52.220;5.160;2023-08-21T02:28:59;102248.63;;;18.88;84.94
68230;BME280;55048;52.220;5.160;2023-08-21T02:31:24;102211.19;;;18.59;84.77
68230;BME280;55048;52.220;5.160;2023-08-21T02:33:50;102253.53;;;18.91;85.08
68230;BME280;55048;52.220;5.160;2023-08-21T02:36:16;102022.88;;;17.34;84.70
68230;BME280;55048;52.220;5.160;2023-08-21T02:38:41;102187.66;;;18.49;84.77
68230;BME280;55048;52.220;5.160;2023-08-21T02:41:07;102127.00;;;18.09;84.76
68230;BME280;55048;52.220;5.160;2023-08-21T02:43:33;102195.47;;;18.51;85.09
68230;BME280;55048;52.220;5.160;2023-08-21T02:45:59;102110.97;;;17.93;85.16
68230;BME280;55048;52.220;5.160;2023-08-21T02:48:24;102223.25;;;18.51;85.38
68230;BME280;55048;52.220;5.160;2023-08-21T02:50:50;102142.09;;;18.10;85.31
68230;BME280;55048;52.220;5.160;2023-08-21T02:53:15;102210.28;;;18.48;85.66
68230;BME280;55048;52.220;5.160;2023-08-21T02:55:41;102175.38;;;18.31;85.42
68230;BME280;55048;52.220;5.160;2023-08-21T02:58:06;102174.00;;;18.24;85.89
68230;BME280;55048;52.220;5.160;2023-08-21T03:00:32;102187.78;;;18.32;86.01
68230;BME280;55048;52.220;5.160;2023-08-21T03:02:57;102147.97;;;18.07;86.25
68230;BME280;55048;52.220;5.160;2023-08-21T03:05:22;102092.38;;;17.69;86.52
68230;BME280;55048;52.220;5.160;2023-08-21T03:07:48;102132.22;;;17.94;86.25
68230;BME280;55048;52.220;5.160;2023-08-21T03:10:13;102208.88;;;18.41;86.46
68230;BME280;55048;52.220;5.160;2023-08-21T03:12:39;102148.41;;;17.99;86.15
68230;BME280;55048;52.220;5.160;2023-08-21T03:15:05;102194.00;;;18.33;86.58
68230;BME280;55048;52.220;5.160;2023-08-21T03:17:31;101975.19;;;16.97;86.39
68230;BME280;55048;52.220;5.160;2023-08-21T03:19:56;102190.63;;;18.21;86.51
68230;BME280;55048;52.220;5.160;2023-08-21T03:22:23;102171.06;;;18.03;86.61
68230;BME280;55048;52.220;5.160;2023-08-21T03:24:48;102206.09;;;18.30;86.75
68230;BME280;55048;52.220;5.160;2023-08-21T03:27:18;102230.47;;;18.46;87.08
68230;BME280;55048;52.220;5.160;2023-08-21T03:29:44;102208.81;;;18.35;87.10
68230;BME280;55048;52.220;5.160;2023-08-21T03:32:15;102121.81;;;17.76;87.29
68230;BME280;55048;52.220;5.160;2023-08-21T03:34:40;102176.81;;;18.12;87.13
68230;BME280;55048;52.220;5.160;2023-08-21T03:37:06;102231.00;;;18.43;87.58
68230;BME280;55048;52.220;5.160;2023-08-21T03:39:32;102133.69;;;17.80;87.46
68230;BME280;55048;52.220;5.160;2023-08-21T03:41:58;102207.47;;;18.33;87.32
68230;BME280;55048;52.220;5.160;2023-08-21T03:44:23;102237.78;;;18.50;87.47
68230;BME280;55048;52.220;5.160;2023-08-21T03:46:49;102223.69;;;18.38;87.63
68230;BME280;55048;52.220;5.160;2023-08-21T03:49:14;102148.94;;;17.96;87.82
68230;BME280;55048;52.220;5.160;2023-08-21T03:51:40;102235.03;;;18.45;87.80
68230;BME280;55048;52.220;5.160;2023-08-21T03:54:05;102174.56;;;18.04;87.70
68230;BME280;55048;52.220;5.160;2023-08-21T03:56:30;102174.25;;;17.95;87.74
68230;BME280;55048;52.220;5.160;2023-08-21T03:58:56;102228.97;;;18.28;87.84
68230;BME280;55048;52.220;5.160;2023-08-21T04:01:21;102190.50;;;18.05;87.70
68230;BME280;55048;52.220;5.160;2023-08-21T04:03:47;102233.72;;;18.21;88.02
68230;BME280;55048;52.220;5.160;2023-08-21T04:06:12;102247.34;;;18.36;88.13
68230;BME280;55048;52.220;5.160;2023-08-21T04:08:38;102156.56;;;17.77;88.10
68230;BME280;55048;52.220;5.160;2023-08-21T04:11:05;102010.72;;;16.82;87.94
68230;BME280;55048;52.220;5.160;2023-08-21T04:13:31;102198.00;;;18.03;87.73
68230;BME280;55048;52.220;5.160;2023-08-21T04:15:56;102203.38;;;18.03;87.88
68230;BME280;55048;52.220;5.160;2023-08-21T04:18:22;102228.25;;;18.10;88.14
68230;BME280;55048;52.220;5.160;2023-08-21T04:20:48;102112.25;;;17.19;87.57
68230;BME280;55048;52.220;5.160;2023-08-21T04:23:13;102205.91;;;17.88;88.09
68230;BME280;55048;52.220;5.160;2023-08-21T04:25:38;102248.81;;;18.22;88.57
68230;BME280;55048;52.220;5.160;2023-08-21T04:28:04;102152.78;;;17.56;88.56
68230;BME280;55048;52.220;5.160;2023-08-21T04:30:30;102261.47;;;18.21;88.54
68230;BME280;55048;52.220;5.160;2023-08-21T04:32:55;102196.75;;;17.89;88.79
68230;BME280;55048;52.220;5.160;2023-08-21T04:35:21;102146.84;;;17.54;88.65
68230;BME280;55048;52.220;5.160;2023-08-21T04:37:47;102200.22;;;17.84;88.88
68230;BME280;55048;52.220;5.160;2023-08-21T04:40:15;102210.75;;;17.86;89.07
68230;BME280;55048;52.220;5.160;2023-08-21T04:42:42;102183.94;;;17.74;89.01
68230;BME280;55048;52.220;5.160;2023-08-21T04:45:09;102205.84;;;17.83;89.02
68230;BME280;55048;52.220;5.160;2023-08-21T04:47:37;102213.50;;;17.91;88.83
68230;BME280;55048;52.220;5.160;2023-08-21T04:50:02;102264.16;;;18.21;89.28
68230;BME280;55048;52.220;5.160;2023-08-21T04:52:28;102226.44;;;17.94;88.95
68230;BME280;55048;52.220;5.160;2023-08-21T04:54:54;102261.91;;;18.13;89.36
68230;BME280;55048;52.220;5.160;2023-08-21T04:57:20;102141.50;;;17.38;89.00
68230;BME280;55048;52.220;5.160;2023-08-21T04:59:48;102009.88;;;16.60;89.08
68230;BME280;55048;52.220;5.160;2023-08-21T05:02:14;102255.22;;;18.16;89.10
68230;BME280;55048;52.220;5.160;2023-08-21T05:04:39;102197.19;;;17.81;89.06
68230;BME280;55048;52.220;5.160;2023-08-21T05:07:05;102270.41;;;18.27;89.26
68230;BME280;55048;52.220;5.160;2023-08-21T05:09:32;102142.22;;;17.50;89.20
68230;BME280;55048;52.220;5.160;2023-08-21T05:11:57;102252.22;;;18.12;89.58
68230;BME280;55048;52.220;5.160;2023-08-21T05:14:24;102267.97;;;18.25;89.72
68230;BME280;55048;52.220;5.160;2023-08-21T05:16:50;102260.34;;;18.17;89.90
68230;BME280;55048;52.220;5.160;2023-08-21T05:19:16;102208.09;;;17.91;89.76
68230;BME280;55048;52.220;5.160;2023-08-21T05:21:42;102260.97;;;18.24;89.59
68230;BME280;55048;52.220;5.160;2023-08-21T05:24:07;102242.81;;;18.15;90.00
68230;BME280;55048;52.220;5.160;2023-08-21T05:26:36;102239.75;;;18.06;90.00
68230;BME280;55048;52.220;5.160;2023-08-21T05:29:02;102281.53;;;18.35;89.86
68230;BME280;55048;52.220;5.160;2023-08-21T05:31:27;102241.66;;;18.05;89.97
68230;BME280;55048;52.220;5.160;2023-08-21T05:33:54;102283.75;;;18.39;89.84
68230;BME280;55048;52.220;5.160;2023-08-21T05:36:20;102221.41;;;18.03;90.05
68230;BME280;55048;52.220;5.160;2023-08-21T05:38:45;102167.22;;;17.72;89.99
68230;BME280;55048;52.220;5.160;2023-08-21T05:41:13;102237.50;;;18.20;90.01
68230;BME280;55048;52.220;5.160;2023-08-21T05:43:39;102165.75;;;17.81;89.87
68230;BME280;55048;52.220;5.160;2023-08-21T05:46:08;102257.00;;;18.32;90.23
68230;BME280;55048;52.220;5.160;2023-08-21T05:48:33;102240.03;;;18.31;90.12
68230;BME280;55048;52.220;5.160;2023-08-21T05:50:59;102282.63;;;18.61;90.14
68230;BME280;55048;52.220;5.160;2023-08-21T05:53:24;102214.06;;;18.20;89.88
68230;BME280;55048;52.220;5.160;2023-08-21T05:55:52;102245.63;;;18.52;89.87
68230;BME280;55048;52.220;5.160;2023-08-21T05:58:18;102261.88;;;18.62;89.66
68230;BME280;55048;52.220;5.160;2023-08-21T06:00:43;102232.19;;;18.57;89.92
68230;BME280;55048;52.220;5.160;2023-08-21T06:03:09;102124.53;;;18.35;90.00
68230;BME280;55048;52.220;5.160;2023-08-21T06:06:04;102221.63;;;19.67;88.63
68230;BME280;55048;52.220;5.160;2023-08-21T06:08:30;102233.41;;;20.19;86.60
68230;BME280;55048;52.220;5.160;2023-08-21T06:10:56;102262.69;;;20.78;85.17
68230;BME280;55048;52.220;5.160;2023-08-21T06:13:21;102166.47;;;20.51;83.46
68230;BME280;55048;52.220;5.160;2023-08-21T06:15:49;102201.00;;;21.10;82.48
68230;BME280;55048;52.220;5.160;2023-08-21T06:18:15;102188.81;;;21.33;80.83
68230;BME280;55048;52.220;5.160;2023-08-21T06:20:44;102242.13;;;21.98;79.52
68230;BME280;55048;52.220;5.160;2023-08-21T06:23:10;102283.41;;;22.39;78.75
68230;BME280;55048;52.220;5.160;2023-08-21T06:25:36;102244.00;;;22.47;77.90
68230;BME280;55048;52.220;5.160;2023-08-21T06:28:02;102195.09;;;22.28;76.79
68230;BME280;55048;52.220;5.160;2023-08-21T06:30:28;102280.34;;;22.90;76.64
68230;BME280;55048;52.220;5.160;2023-08-21T06:32:54;102268.97;;;22.83;76.18
68230;BME280;55048;52.220;5.160;2023-08-21T06:35:20;102299.03;;;23.21;75.46
68230;BME280;55048;52.220;5.160;2023-08-21T06:37:45;102297.94;;;23.22;75.56
68230;BME280;55048;52.220;5.160;2023-08-21T06:40:11;102225.91;;;22.76;74.72
68230;BME280;55048;52.220;5.160;2023-08-21T06:42:36;102248.06;;;22.83;74.51
68230;BME280;55048;52.220;5.160;2023-08-21T06:45:04;102281.13;;;22.90;74.77
68230;BME280;55048;52.220;5.160;2023-08-21T06:47:30;102218.28;;;22.44;74.74
68230;BME280;55048;52.220;5.160;2023-08-21T06:49:56;102276.41;;;22.67;74.91
68230;BME280;55048;52.220;5.160;2023-08-21T06:52:21;102229.47;;;22.32;74.87
68230;BME280;55048;52.220;5.160;2023-08-21T06:54:47;102234.91;;;22.32;74.80
68230;BME280;55048;52.220;5.160;2023-08-21T06:57:12;102248.78;;;22.26;74.91
68230;BME280;55048;52.220;5.160;2023-08-21T06:59:37;102267.50;;;22.22;75.37
68230;BME280;55048;52.220;5.160;2023-08-21T07:02:03;102287.81;;;22.25;75.92
68230;BME280;55048;52.220;5.160;2023-08-21T07:04:29;102259.69;;;22.05;75.86
68230;BME280;55048;52.220;5.160;2023-08-21T07:06:54;102277.81;;;22.20;75.73
68230;BME280;55048;52.220;5.160;2023-08-21T07:09:19;102259.69;;;22.10;75.97
68230;BME280;55048;52.220;5.160;2023-08-21T07:11:45;102286.41;;;22.32;76.45
68230;BME280;55048;52.220;5.160;2023-08-21T07:14:11;102204.53;;;21.86;75.80
68230;BME280;55048;52.220;5.160;2023-08-21T07:16:38;102294.75;;;22.41;75.76
68230;BME280;55048;52.220;5.160;2023-08-21T07:19:04;102286.31;;;22.48;74.85
68230;BME280;55048;52.220;5.160;2023-08-21T07:21:29;102297.31;;;22.66;73.97
68230;BME280;55048;52.220;5.160;2023-08-21T07:23:55;102281.81;;;22.72;73.17
68230;BME280;55048;52.220;5.160;2023-08-21T07:26:20;102278.78;;;22.74;72.41
68230;BME280;55048;52.220;5.160;2023-08-21T07:28:45;102248.72;;;22.70;71.40
68230;BME280;55048;52.220;5.160;2023-08-21T07:31:11;102306.94;;;23.17;70.78
68230;BME280;55048;52.220;5.160;2023-08-21T07:33:36;102248.44;;;22.72;70.73
68230;BME280;55048;52.220;5.160;2023-08-21T07:36:06;102296.47;;;23.05;71.01
68230;BME280;55048;52.220;5.160;2023-08-21T07:38:31;102288.34;;;23.05;69.70
68230;BME280;55048;52.220;5.160;2023-08-21T07:41:08;102317.56;;;23.13;66.11
68230;BME280;55048;52.220;5.160;2023-08-21T07:43:42;102228.28;;;22.83;68.04
68230;BME280;55048;52.220;5.160;2023-08-21T07:46:10;102316.47;;;23.43;67.22
68230;BME280;55048;52.220;5.160;2023-08-21T07:48:38;102273.34;;;23.13;66.39
68230;BME280;55048;52.220;5.160;2023-08-21T07:51:04;102266.22;;;23.17;66.11
68230;BME280;55048;52.220;5.160;2023-08-21T07:53:29;102271.56;;;23.27;66.27
68230;BME280;55048;52.220;5.160;2023-08-21T07:55:57;102318.78;;;23.55;66.44
68230;BME280;55048;52.220;5.160;2023-08-21T07:58:22;102218.94;;;22.99;66.44
68230;BME280;55048;52.220;5.160;2023-08-21T08:00:48;102318.97;;;23.64;66.73
68230;BME280;55048;52.220;5.160;2023-08-21T08:03:13;102276.47;;;23.49;66.82
68230;BME280;55048;52.220;5.160;2023-08-21T08:05:40;102245.56;;;23.45;66.78
68230;BME280;55048;52.220;5.160;2023-08-21T08:08:06;102279.31;;;23.63;66.85
68230;BME280;55048;52.220;5.160;2023-08-21T08:10:32;102315.03;;;23.99;66.19
68230;BME280;55048;52.220;5.160;2023-08-21T08:12:57;102250.91;;;23.55;64.98
68230;BME280;55048;52.220;5.160;2023-08-21T08:15:23;102294.75;;;23.91;64.71
68230;BME280;55048;52.220;5.160;2023-08-21T08:17:48;102324.47;;;24.26;64.34
68230;BME280;55048;52.220;5.160;2023-08-21T08:20:18;102327.81;;;24.41;63.82
68230;BME280;55048;52.220;5.160;2023-08-21T08:22:44;102106.00;;;23.03;63.60
68230;BME280;55048;52.220;5.160;2023-08-21T08:25:09;102303.25;;;24.28;63.29
68230;BME280;55048;52.220;5.160;2023-08-21T08:27:35;102303.13;;;24.38;62.79
68230;BME280;55048;52.220;5.160;2023-08-21T08:30:01;102256.66;;;24.15;62.53
68230;BME280;55048;52.220;5.160;2023-08-21T08:32:26;102316.22;;;24.55;62.13
68230;BME280;55048;52.220;5.160;2023-08-21T08:34:52;102296.72;;;24.48;62.09
68230;BME280;55048;52.220;5.160;2023-08-21T08:37:18;102315.59;;;24.77;62.00
68230;BME280;55048;52.220;5.160;2023-08-21T08:39:46;102328.44;;;24.90;61.81
68230;BME280;55048;52.220;5.160;2023-08-21T08:42:13;102344.16;;;24.93;61.47
68230;BME280;55048;52.220;5.160;2023-08-21T08:44:39;102321.38;;;24.89;61.01
68230;BME280;55048;52.220;5.160;2023-08-21T08:47:07;102303.13;;;24.89;61.06
68230;BME280;55048;52.220;5.160;2023-08-21T08:49:33;102333.06;;;25.08;61.37
68230;BME280;55048;52.220;5.160;2023-08-21T08:51:59;102318.75;;;25.16;61.02
68230;BME280;55048;52.220;5.160;2023-08-21T08:54:25;102140.88;;;24.14;60.99
68230;BME280;55048;52.220;5.160;2023-08-21T08:56:51;102294.97;;;25.22;60.83
68230;BME280;55048;52.220;5.160;2023-08-21T08:59:17;102291.78;;;25.34;60.36
68230;BME280;55048;52.220;5.160;2023-08-21T09:01:43;102177.63;;;24.63;60.15
68230;BME280;55048;52.220;5.160;2023-08-21T09:04:09;102290.56;;;25.40;59.73
68230;BME280;55048;52.220;5.160;2023-08-21T09:06:35;102248.78;;;25.31;59.77
68230;BME280;55048;52.220;5.160;2023-08-21T09:09:01;102269.56;;;25.54;59.65
68230;BME280;55048;52.220;5.160;2023-08-21T09:11:26;102217.66;;;25.37;59.18
68230;BME280;55048;52.220;5.160;2023-08-21T09:13:53;102293.28;;;25.95;58.83
68230;BME280;55048;52.220;5.160;2023-08-21T09:16:20;102330.25;;;25.87;57.33
68230;BME280;55048;52.220;5.160;2023-08-21T09:18:49;102300.09;;;25.84;57.32
68230;BME280;55048;52.220;5.160;2023-08-21T09:21:19;102291.06;;;25.97;58.49
68230;BME280;55048;52.220;5.160;2023-08-21T09:23:45;102292.00;;;25.79;58.19
68230;BME280;55048;52.220;5.160;2023-08-21T09:26:20;102283.19;;;25.95;57.96
68230;BME280;55048;52.220;5.160;2023-08-21T09:28:46;102117.00;;;25.04;57.82
68230;BME280;55048;52.220;5.160;2023-08-21T09:31:12;102281.88;;;26.07;57.77
68230;BME280;55048;52.220;5.160;2023-08-21T09:33:38;102247.56;;;25.92;56.68
68230;BME280;55048;52.220;5.160;2023-08-21T09:36:04;102284.53;;;26.20;55.50
68230;BME280;55048;52.220;5.160;2023-08-21T09:38:38;102306.94;;;26.45;55.82
68230;BME280;55048;52.220;5.160;2023-08-21T09:41:04;102293.06;;;26.41;56.41
68230;BME280;55048;52.220;5.160;2023-08-21T09:43:29;102308.91;;;26.53;55.44
68230;BME280;55048;52.220;5.160;2023-08-21T09:45:55;102302.53;;;26.58;54.75
68230;BME280;55048;52.220;5.160;2023-08-21T09:48:25;102297.84;;;26.50;54.36
68230;BME280;55048;52.220;5.160;2023-08-21T09:50:55;102204.47;;;25.94;54.00
68230;BME280;55048;52.220;5.160;2023-08-21T09:53:24;102253.69;;;26.48;54.55
68230;BME280;55048;52.220;5.160;2023-08-21T09:55:54;102269.44;;;26.51;53.94
68230;BME280;55048;52.220;5.160;2023-08-21T09:58:20;102291.00;;;26.83;53.86
68230;BME280;55048;52.220;5.160;2023-08-21T10:00:48;102265.25;;;26.76;54.36
68230;BME280;55048;52.220;5.160;2023-08-21T10:03:18;102279.91;;;26.80;54.55
68230;BME280;55048;52.220;5.160;2023-08-21T10:05:45;102270.63;;;26.89;54.14
68230;BME280;55048;52.220;5.160;2023-08-21T10:08:15;102224.63;;;26.74;53.68
68230;BME280;55048;52.220;5.160;2023-08-21T10:10:41;102284.19;;;27.26;53.42
68230;BME280;55048;52.220;5.160;2023-08-21T10:13:07;102264.88;;;27.22;52.65
68230;BME280;55048;52.220;5.160;2023-08-21T10:15:34;102277.31;;;27.37;52.46
68230;BME280;55048;52.220;5.160;2023-08-21T10:18:29;102266.81;;;27.21;52.82
68230;BME280;55048;52.220;5.160;2023-08-21T10:20:55;102280.69;;;27.34;53.13
68230;BME280;55048;52.220;5.160;2023-08-21T10:23:28;102260.91;;;27.28;53.77
68230;BME280;55048;52.220;5.160;2023-08-21T10:25:58;102296.66;;;27.49;53.39
68230;BME280;55048;52.220;5.160;2023-08-21T10:28:24;102286.09;;;27.56;52.96
68230;BME280;55048;52.220;5.160;2023-08-21T10:30:50;102265.44;;;27.41;52.94
68230;BME280;55048;52.220;5.160;2023-08-21T10:33:16;102280.44;;;27.53;52.79
68230;BME280;55048;52.220;5.160;2023-08-21T10:35:44;102263.75;;;27.23;52.44
68230;BME280;55048;52.220;5.160;2023-08-21T10:38:17;102290.72;;;27.56;52.77
68230;BME280;55048;52.220;5.160;2023-08-21T10:41:04;102297.44;;;27.81;52.06
68230;BME280;55048;52.220;5.160;2023-08-21T10:43:45;102290.84;;;27.90;51.34
68230;BME280;55048;52.220;5.160;2023-08-21T10:46:12;102252.00;;;27.54;50.77
68230;BME280;55048;52.220;5.160;2023-08-21T10:48:39;102290.53;;;28.01;49.86
68230;BME280;55048;52.220;5.160;2023-08-21T10:51:06;102236.59;;;27.66;49.91
68230;BME280;55048;52.220;5.160;2023-08-21T10:53:33;102242.94;;;27.84;49.57
68230;BME280;55048;52.220;5.160;2023-08-21T10:56:03;102259.84;;;28.04;49.55
68230;BME280;55048;52.220;5.160;2023-08-21T10:58:43;102278.03;;;28.17;49.18
68230;BME280;55048;52.220;5.160;2023-08-21T11:01:12;102249.06;;;27.99;47.96
68230;BME280;55048;52.220;5.160;2023-08-21T11:03:39;102296.88;;;28.36;47.74
68230;BME280;55048;52.220;5.160;2023-08-21T11:06:09;102164.72;;;27.57;47.79
68230;BME280;55048;52.220;5.160;2023-08-21T11:08:35;102236.19;;;27.99;47.49
68230;BME280;55048;52.220;5.160;2023-08-21T11:11:04;102279.13;;;28.33;47.77
68230;BME280;55048;52.220;5.160;2023-08-21T11:13:30;102277.88;;;28.48;48.19
68230;BME280;55048;52.220;5.160;2023-08-21T11:16:00;102276.91;;;28.53;47.84
68230;BME280;55048;52.220;5.160;2023-08-21T11:18:44;102240.03;;;28.33;47.52
68230;BME280;55048;52.220;5.160;2023-08-21T11:21:11;102258.25;;;28.55;48.12
68230;BME280;55048;52.220;5.160;2023-08-21T11:23:41;102281.75;;;28.38;47.77
68230;BME280;55048;52.220;5.160;2023-08-21T11:26:09;102261.44;;;28.13;48.07
68230;BME280;55048;52.220;5.160;2023-08-21T11:28:36;102275.59;;;28.33;48.45
68230;BME280;55048;52.220;5.160;2023-08-21T11:31:01;102272.09;;;28.50;47.84
68230;BME280;55048;52.220;5.160;2023-08-21T11:33:27;102287.03;;;28.52;48.17
68230;BME280;55048;52.220;5.160;2023-08-21T11:35:54;102285.91;;;28.53;47.24
68230;BME280;55048;52.220;5.160;2023-08-21T11:38:21;102277.41;;;28.55;47.93
68230;BME280;55048;52.220;5.160;2023-08-21T11:40:52;102092.22;;;27.34;47.75
68230;BME280;55048;52.220;5.160;2023-08-21T11:43:17;102236.53;;;28.41;48.19
68230;BME280;55048;52.220;5.160;2023-08-21T11:45:45;102219.78;;;28.42;48.42
68230;BME280;55048;52.220;5.160;2023-08-21T11:48:10;102198.38;;;28.36;47.86
68230;BME280;55048;52.220;5.160;2023-08-21T11:50:36;102272.81;;;28.85;47.53
68230;BME280;55048;52.220;5.160;2023-08-21T11:53:02;102238.56;;;28.61;46.81
68230;BME280;55048;52.220;5.160;2023-08-21T11:55:29;102125.38;;;27.76;46.23
68230;BME280;55048;52.220;5.160;2023-08-21T11:57:54;102116.69;;;27.91;46.89
68230;BME280;55048;52.220;5.160;2023-08-21T12:00:27;102276.69;;;29.01;47.31
68230;BME280;55048;52.220;5.160;2023-08-21T12:02:54;102273.94;;;29.01;46.16
68230;BME280;55048;52.220;5.160;2023-08-21T12:05:21;102274.06;;;29.05;45.85
68230;BME280;55048;52.220;5.160;2023-08-21T12:07:47;102277.81;;;28.91;46.04
68230;BME280;55048;52.220;5.160;2023-08-21T12:10:13;102238.91;;;28.60;46.51
68230;BME280;55048;52.220;5.160;2023-08-21T12:12:38;102245.34;;;28.64;45.87
68230;BME280;55048;52.220;5.160;2023-08-21T12:15:04;102272.19;;;28.96;45.93
68230;BME280;55048;52.220;5.160;2023-08-21T12:17:29;102227.63;;;28.61;46.33
68230;BME280;55048;52.220;5.160;2023-08-21T12:19:55;102243.84;;;28.84;46.22
68230;BME280;55048;52.220;5.160;2023-08-21T12:22:21;102231.28;;;28.83;46.26
68230;BME280;55048;52.220;5.160;2023-08-21T12:24:46;102217.63;;;28.65;45.71
68230;BME280;55048;52.220;5.160;2023-08-21T12:27:11;102256.56;;;28.97;44.76
68230;BME280;55048;52.220;5.160;2023-08-21T12:29:37;102240.91;;;28.89;43.70
68230;BME280;55048;52.220;5.160;2023-08-21T12:32:02;102262.84;;;28.97;43.74
68230;BME280;55048;52.220;5.160;2023-08-21T12:34:28;102238.81;;;28.86;42.36
68230;BME280;55048;52.220;5.160;2023-08-21T12:36:54;102091.41;;;28.03;42.67
68230;BME280;55048;52.220;5.160;2023-08-21T12:39:19;102112.63;;;28.06;42.55
68230;BME280;55048;52.220;5.160;2023-08-21T12:41:45;102203.78;;;28.70;42.97
68230;BME280;55048;52.220;5.160;2023-08-21T12:44:11;102230.91;;;28.93;42.57
68230;BME280;55048;52.220;5.160;2023-08-21T12:46:36;102215.53;;;28.62;43.34
68230;BME280;55048;52.220;5.160;2023-08-21T12:49:02;102233.59;;;28.55;44.14